Time;durP1;ratioP1;P1;durP2;ratioP2;P2;SDS_P1;SDS_P2;PMS_P1;PMS_P2;Temp;Humidity;BMP_temperature;BMP_pressure;BME280_temperature;BME280_humidity;BME280_pressure;Samples;Min_cycle;Max_cycle;Signal;HPM_P1;HPM_P2
2023/05/25 00:02:05;;;;;;;9.40;3.40;;;10.00;99.90;;;;;;5026047;28;20033;-62
2023/05/25 00:04:33;;;;;;;8.45;3.33;;;10.00;99.90;;;;;;5017311;28;20203;-62
2023/05/25 00:06:59;;;;;;;8.38;3.30;;;9.90;99.90;;;;;;5022379;28;20068;-62
2023/05/25 00:09:25;;;;;;;6.55;3.42;;;9.90;99.90;;;;;;5020962;28;20034;-62
2023/05/25 00:11:51;;;;;;;8.00;3.30;;;9.90;99.90;;;;;;5023001;28;20037;-62
2023/05/25 00:14:17;;;;;;;6.53;3.33;;;9.80;99.90;;;;;;5031041;28;20057;-62
2023/05/25 00:16:44;;;;;;;8.13;3.67;;;9.80;99.90;;;;;;5027277;28;20042;-62
2023/05/25 00:19:10;;;;;;;8.68;3.50;;;9.80;99.90;;;;;;5021151;28;20048;-62
2023/05/25 00:21:37;;;;;;;7.95;3.40;;;9.70;99.90;;;;;;5017711;28;20120;-62
2023/05/25 00:24:04;;;;;;;8.95;3.45;;;9.70;99.90;;;;;;5020479;28;20161;-62
2023/05/25 00:26:29;;;;;;;7.28;3.50;;;9.70;99.90;;;;;;5016901;28;20045;-62
2023/05/25 00:28:55;;;;;;;7.82;3.55;;;9.60;99.90;;;;;;5025622;28;20045;-62
2023/05/25 00:31:21;;;;;;;10.05;3.47;;;9.60;99.90;;;;;;5023778;28;20132;-62
2023/05/25 00:33:46;;;;;;;8.38;3.35;;;9.50;99.90;;;;;;5023258;28;20038;-62
2023/05/25 00:36:12;;;;;;;6.60;3.13;;;9.50;99.90;;;;;;5030012;28;20380;-62
2023/05/25 00:38:37;;;;;;;4.60;2.92;;;9.50;99.90;;;;;;5027587;28;20091;-62
2023/05/25 00:41:04;;;;;;;7.78;3.42;;;9.50;99.90;;;;;;5019826;28;20030;-62
2023/05/25 00:43:30;;;;;;;9.27;4.00;;;9.40;99.90;;;;;;5019535;28;20038;-62
2023/05/25 00:45:56;;;;;;;11.45;4.32;;;9.40;99.90;;;;;;5031632;28;20083;-62
2023/05/25 00:48:24;;;;;;;12.23;4.57;;;9.40;99.90;;;;;;5023071;28;20050;-62
2023/05/25 00:50:56;;;;;;;11.15;4.38;;;9.40;99.90;;;;;;5019886;28;20517;-62
2023/05/25 00:53:22;;;;;;;8.80;4.10;;;9.40;99.90;;;;;;5011670;28;20049;-62
2023/05/25 00:56:13;;;;;;;11.30;4.28;;;9.40;99.90;;;;;;5020682;28;20064;-62
2023/05/25 00:58:40;;;;;;;9.10;4.03;;;9.50;99.90;;;;;;5020003;28;20056;-62
2023/05/25 01:01:10;;;;;;;11.00;4.18;;;9.50;99.90;;;;;;5025682;28;20029;-62
2023/05/25 01:03:38;;;;;;;9.87;4.20;;;9.50;99.90;;;;;;5017294;28;20056;-62
2023/05/25 01:06:11;;;;;;;7.75;3.80;;;9.40;99.90;;;;;;5020835;28;20354;-62
2023/05/25 01:08:43;;;;;;;10.40;4.38;;;9.40;99.90;;;;;;5010874;28;20038;-62
2023/05/25 01:11:10;;;;;;;;;;;9.40;99.90;;;;;;5028274;28;21626;-62
2023/05/25 01:13:37;;;;;;;10.88;4.22;;;9.40;99.90;;;;;;5016056;28;19924;-62
2023/05/25 01:16:05;;;;;;;8.82;4.10;;;9.30;99.90;;;;;;5021132;28;20398;-62
2023/05/25 01:18:32;;;;;;;8.07;3.80;;;9.30;99.90;;;;;;5021607;28;20049;-62
2023/05/25 01:21:28;;;;;;;9.38;4.22;;;9.30;99.90;;;;;;5029111;28;20046;-62
2023/05/25 01:24:04;;;;;;;7.80;4.05;;;9.30;99.90;;;;;;5006975;28;20419;-62
2023/05/25 01:26:36;;;;;;;8.13;4.30;;;9.30;99.90;;;;;;5020006;28;20038;-62
2023/05/25 01:29:03;;;;;;;9.18;4.20;;;9.20;99.90;;;;;;5022008;28;20037;-62
2023/05/25 01:31:29;;;;;;;6.10;3.60;;;9.20;99.90;;;;;;5024193;28;20037;-62
2023/05/25 01:33:55;;;;;;;11.80;4.30;;;9.20;99.90;;;;;;5021244;28;20125;-63
2023/05/25 01:36:21;;;;;;;8.20;4.15;;;9.10;99.90;;;;;;5028256;28;20038;-62
2023/05/25 01:38:47;;;;;;;9.18;3.97;;;9.10;99.90;;;;;;5031353;28;20041;-62
2023/05/25 01:43:45;;;;;;;11.02;4.40;;;9.10;99.90;;;;;;5045510;28;20102;-65
2023/05/25 01:46:31;;;;;;;8.70;4.50;;;9.10;99.90;;;;;;5051252;28;20116;-65
2023/05/25 01:49:26;;;;;;;9.25;4.32;;;9.10;99.90;;;;;;5050184;28;20052;-66
2023/05/25 01:52:15;;;;;;;8.60;4.03;;;9.10;99.90;;;;;;5050720;28;20037;-65
2023/05/25 01:54:52;;;;;;;10.10;4.75;;;9.10;99.90;;;;;;5031299;28;20111;-65
2023/05/25 01:57:19;;;;;;;7.60;3.80;;;9.10;99.90;;;;;;5050101;28;20041;-65
2023/05/25 01:59:46;;;;;;;11.13;4.65;;;9.00;99.90;;;;;;5042461;28;20056;-65
2023/05/25 02:02:18;;;;;;;13.55;4.57;;;9.00;99.90;;;;;;5047257;28;20043;-65
2023/05/25 02:04:44;;;;;;;10.98;5.32;;;9.00;99.90;;;;;;5039964;28;20502;-65
2023/05/25 02:07:10;;;;;;;9.48;4.53;;;9.00;99.90;;;;;;5049970;28;20029;-65
2023/05/25 02:09:35;;;;;;;7.65;4.07;;;9.00;99.90;;;;;;5041689;28;20033;-65
2023/05/25 02:12:01;;;;;;;12.18;4.18;;;9.00;99.90;;;;;;5052245;28;20044;-65
2023/05/25 02:14:27;;;;;;;8.48;4.00;;;9.00;99.90;;;;;;5053151;28;20115;-65
2023/05/25 02:16:53;;;;;;;10.63;4.93;;;9.00;99.90;;;;;;5053266;28;20037;-65
2023/05/25 02:19:18;;;;;;;7.55;4.05;;;8.90;99.90;;;;;;5053758;28;20041;-65
2023/05/25 02:21:44;;;;;;;6.88;3.63;;;8.90;99.90;;;;;;5054651;28;20434;-65
2023/05/25 02:24:10;;;;;;;10.63;4.80;;;8.90;99.90;;;;;;5054360;28;20394;-65
2023/05/25 02:26:37;;;;;;;10.18;4.80;;;8.90;99.90;;;;;;5046898;28;20033;-65
2023/05/25 02:29:03;;;;;;;10.48;4.45;;;8.80;99.90;;;;;;5049869;28;20512;-66
2023/05/25 02:31:29;;;;;;;8.15;3.90;;;8.80;99.90;;;;;;5048089;28;20048;-65
2023/05/25 02:33:55;;;;;;;7.60;4.05;;;8.80;99.90;;;;;;5044964;28;20483;-65
2023/05/25 02:36:21;;;;;;;10.73;4.50;;;8.80;99.90;;;;;;5049147;28;20037;-65
2023/05/25 02:38:48;;;;;;;8.90;4.22;;;8.80;99.90;;;;;;5049959;28;20048;-65
2023/05/25 02:41:15;;;;;;;9.45;4.32;;;8.70;99.90;;;;;;5050834;28;20486;-65
2023/05/25 02:43:40;;;;;;;12.02;4.65;;;8.70;99.90;;;;;;5045626;28;20087;-65
2023/05/25 02:46:06;;;;;;;11.38;5.60;;;8.70;99.90;;;;;;5049501;28;20367;-65
2023/05/25 02:48:32;;;;;;;12.98;5.88;;;8.70;99.90;;;;;;5047906;28;20446;-65
2023/05/25 02:50:57;;;;;;;13.85;6.70;;;8.70;99.90;;;;;;5052998;28;20079;-65
2023/05/25 02:53:23;;;;;;;11.18;4.97;;;8.70;99.90;;;;;;5052615;28;20090;-65
2023/05/25 02:55:48;;;;;;;8.85;5.32;;;8.70;99.90;;;;;;5053280;28;20049;-65
2023/05/25 02:58:14;;;;;;;11.18;5.03;;;8.70;99.90;;;;;;5053610;28;20065;-65
2023/05/25 03:00:41;;;;;;;11.02;4.88;;;8.70;99.90;;;;;;5045207;28;20073;-65
2023/05/25 03:03:07;;;;;;;13.85;5.53;;;8.70;99.90;;;;;;5045932;28;20083;-65
2023/05/25 03:05:34;;;;;;;10.13;5.15;;;8.60;99.90;;;;;;5049197;28;20033;-66
2023/05/25 03:08:00;;;;;;;11.00;5.03;;;8.60;99.90;;;;;;5052880;28;20119;-65
2023/05/25 03:10:26;;;;;;;11.18;5.28;;;8.60;99.90;;;;;;5046754;28;20116;-66
2023/05/25 03:12:51;;;;;;;11.52;4.90;;;8.60;99.90;;;;;;5053159;28;20705;-66
2023/05/25 03:15:17;;;;;;;10.35;4.95;;;8.60;99.90;;;;;;5050960;28;20049;-65
2023/05/25 03:17:42;;;;;;;9.20;4.72;;;8.50;99.90;;;;;;5043457;28;20108;-66
2023/05/25 03:20:09;;;;;;;8.82;5.00;;;8.50;99.90;;;;;;5050382;28;20494;-66
2023/05/25 03:22:35;;;;;;;11.57;5.13;;;8.50;99.90;;;;;;5052134;28;20494;-65
2023/05/25 03:25:01;;;;;;;12.00;5.25;;;8.50;99.90;;;;;;5050967;28;20087;-66
2023/05/25 03:27:27;;;;;;;11.88;6.00;;;8.50;99.90;;;;;;5052262;28;20040;-66
2023/05/25 03:29:52;;;;;;;9.90;5.50;;;8.50;99.90;;;;;;5053000;28;20113;-65
2023/05/25 03:32:18;;;;;;;11.20;5.50;;;8.40;99.90;;;;;;5048142;28;20052;-65
2023/05/25 03:34:44;;;;;;;8.40;5.38;;;8.40;99.90;;;;;;5049004;28;20041;-66
2023/05/25 03:37:10;;;;;;;11.18;5.43;;;8.40;99.90;;;;;;5051310;28;20041;-66
2023/05/25 03:39:35;;;;;;;10.10;5.10;;;8.50;99.90;;;;;;5045438;28;20038;-65
2023/05/25 03:42:02;;;;;;;9.25;5.13;;;8.40;99.90;;;;;;5050989;28;20409;-66
2023/05/25 03:44:27;;;;;;;10.98;4.72;;;8.50;99.90;;;;;;5052676;28;20444;-66
2023/05/25 03:46:53;;;;;;;12.68;6.20;;;8.50;99.90;;;;;;5050672;28;20033;-65
2023/05/25 03:49:19;;;;;;;14.30;6.30;;;8.50;99.90;;;;;;5052943;28;20044;-66
2023/05/25 03:51:44;;;;;;;14.93;6.80;;;8.60;99.90;;;;;;5052943;28;20036;-66
2023/05/25 03:54:10;;;;;;;13.52;5.40;;;8.60;99.90;;;;;;5051343;28;20029;-66
2023/05/25 03:56:36;;;;;;;12.18;6.40;;;8.60;99.90;;;;;;5051468;28;20048;-66
2023/05/25 03:59:01;;;;;;;11.50;6.22;;;8.60;99.90;;;;;;5051725;28;20033;-66
2023/05/25 04:01:28;;;;;;;17.60;7.13;;;8.60;99.90;;;;;;5042601;28;20041;-66
2023/05/25 04:03:55;;;;;;;13.65;6.20;;;8.70;99.90;;;;;;5036561;28;20414;-65
2023/05/25 04:06:24;;;;;;;14.85;6.97;;;8.70;99.90;;;;;;5051842;28;20052;-66
2023/05/25 04:08:52;;;;;;;15.80;6.43;;;8.70;99.90;;;;;;5052619;28;20044;-66
2023/05/25 04:11:18;;;;;;;15.57;6.72;;;8.70;99.90;;;;;;5050486;28;20063;-65
2023/05/25 04:13:45;;;;;;;12.18;6.13;;;8.70;99.90;;;;;;5052276;28;20124;-66
2023/05/25 04:16:11;;;;;;;15.85;6.80;;;8.80;99.90;;;;;;5046536;28;20124;-65
2023/05/25 04:18:37;;;;;;;12.27;6.47;;;8.80;99.90;;;;;;5052309;28;20127;-65
2023/05/25 04:21:03;;;;;;;13.70;6.70;;;8.90;99.90;;;;;;5051299;28;20100;-65
2023/05/25 04:23:28;;;;;;;15.95;7.35;;;8.90;99.90;;;;;;5051084;28;20051;-66
2023/05/25 04:25:54;;;;;;;15.00;7.80;;;8.90;99.90;;;;;;5051189;28;20032;-66
2023/05/25 04:28:20;;;;;;;16.58;7.15;;;9.00;99.90;;;;;;5052582;28;20068;-66
2023/05/25 04:30:46;;;;;;;16.98;7.43;;;9.10;99.90;;;;;;5045764;28;20037;-66
2023/05/25 04:33:12;;;;;;;16.38;7.90;;;9.10;99.90;;;;;;5050563;28;20535;-66
2023/05/25 04:35:39;;;;;;;17.20;7.95;;;9.20;99.90;;;;;;5049850;28;20545;-66
2023/05/25 04:38:05;;;;;;;17.83;7.85;;;9.20;99.90;;;;;;5050958;28;20037;-66
2023/05/25 04:40:34;;;;;;;16.65;7.90;;;9.20;99.90;;;;;;5048629;28;20049;-66
2023/05/25 04:43:00;;;;;;;16.90;7.82;;;9.30;99.90;;;;;;5038314;28;20047;-66
2023/05/25 04:45:26;;;;;;;16.42;8.07;;;9.40;99.90;;;;;;5044739;28;20490;-66
2023/05/25 04:47:52;;;;;;;16.38;7.85;;;9.40;99.90;;;;;;5051920;28;20047;-66
2023/05/25 04:50:18;;;;;;;19.38;8.70;;;9.50;99.90;;;;;;5047946;28;20406;-66
2023/05/25 04:52:43;;;;;;;18.75;7.90;;;9.50;99.90;;;;;;5050021;28;20037;-66
2023/05/25 04:55:09;;;;;;;15.50;8.20;;;9.60;99.90;;;;;;5042514;28;20086;-65
2023/05/25 04:57:34;;;;;;;16.42;7.93;;;9.60;99.90;;;;;;5048852;28;20068;-66
2023/05/25 05:00:00;;;;;;;14.82;7.18;;;9.60;99.90;;;;;;5050887;28;20049;-66
2023/05/25 05:02:26;;;;;;;14.70;7.70;;;9.70;99.90;;;;;;5051839;28;20032;-66
2023/05/25 05:04:52;;;;;;;19.17;7.72;;;9.70;99.90;;;;;;5050275;28;20449;-66
2023/05/25 05:07:19;;;;;;;15.57;7.95;;;9.80;99.90;;;;;;5048413;28;20037;-66
2023/05/25 05:09:45;;;;;;;16.00;7.32;;;9.80;99.90;;;;;;5050871;28;20499;-66
2023/05/25 05:12:11;;;;;;;21.98;8.93;;;9.90;99.90;;;;;;5041365;28;20044;-67
2023/05/25 05:14:36;;;;;;;16.13;8.20;;;10.00;99.90;;;;;;5050832;28;20032;-67
2023/05/25 05:17:02;;;;;;;21.08;8.13;;;10.10;99.90;;;;;;5048619;28;20483;-67
2023/05/25 05:19:27;;;;;;;19.58;8.70;;;10.20;99.90;;;;;;5051551;28;20090;-67
2023/05/25 05:21:53;;;;;;;19.52;8.77;;;10.30;99.90;;;;;;5042999;28;20114;-67
2023/05/25 05:24:19;;;;;;;18.42;8.05;;;10.40;99.90;;;;;;5049508;28;20092;-67
2023/05/25 05:26:45;;;;;;;21.05;8.15;;;10.50;99.90;;;;;;5039462;28;20048;-67
2023/05/25 05:29:10;;;;;;;17.10;8.10;;;10.60;99.90;;;;;;5051219;28;20044;-67
2023/05/25 05:31:36;;;;;;;19.75;9.05;;;10.70;99.90;;;;;;5050284;28;20489;-67
2023/05/25 05:34:02;;;;;;;15.18;7.57;;;10.80;99.90;;;;;;5049687;28;20063;-66
2023/05/25 05:36:28;;;;;;;18.58;7.85;;;10.80;99.90;;;;;;5047091;28;20569;-64
2023/05/25 05:38:54;;;;;;;19.92;7.63;;;10.90;99.90;;;;;;5050045;28;20087;-64
2023/05/25 05:41:20;;;;;;;19.42;7.82;;;11.00;99.90;;;;;;5045984;28;20497;-64
2023/05/25 05:43:46;;;;;;;19.92;8.73;;;11.10;99.90;;;;;;5047153;28;20099;-64
2023/05/25 05:46:12;;;;;;;19.63;7.63;;;11.20;99.90;;;;;;5051289;28;20037;-64
2023/05/25 05:48:37;;;;;;;19.15;8.40;;;11.30;99.90;;;;;;5054390;28;20037;-64
2023/05/25 05:51:04;;;;;;;20.63;8.30;;;11.40;99.90;;;;;;5054019;28;20472;-64
2023/05/25 05:53:31;;;;;;;20.52;7.57;;;11.50;99.90;;;;;;5053498;28;20110;-64
2023/05/25 05:55:58;;;;;;;19.15;8.13;;;11.50;99.90;;;;;;5055153;28;20037;-64
2023/05/25 05:58:28;;;;;;;18.75;8.32;;;11.70;99.90;;;;;;5055156;28;20059;-64
2023/05/25 06:00:55;;;;;;;17.15;8.38;;;11.80;99.90;;;;;;5046338;28;20430;-64
2023/05/25 06:03:22;;;;;;;19.65;7.32;;;11.80;99.90;;;;;;5047443;28;20037;-64
2023/05/25 06:05:48;;;;;;;18.88;7.50;;;11.90;99.90;;;;;;5051961;28;20041;-64
2023/05/25 06:08:14;;;;;;;23.77;8.20;;;11.90;99.90;;;;;;5044753;28;20040;-64
2023/05/25 06:10:39;;;;;;;18.45;7.50;;;12.10;99.90;;;;;;5050327;28;20052;-64
2023/05/25 06:13:06;;;;;;;15.60;7.80;;;12.10;99.90;;;;;;5049637;28;20036;-64
2023/05/25 06:15:32;;;;;;;14.82;7.20;;;12.20;99.90;;;;;;5052847;28;20537;-64
2023/05/25 06:17:57;;;;;;;14.77;7.15;;;12.30;99.90;;;;;;5046049;28;20158;-64
2023/05/25 06:20:23;;;;;;;16.65;7.60;;;12.40;99.90;;;;;;5054493;28;20041;-64
2023/05/25 06:22:48;;;;;;;21.27;8.18;;;12.40;99.90;;;;;;5052955;28;20171;-65
2023/05/25 06:25:15;;;;;;;21.23;7.53;;;12.50;99.90;;;;;;5050892;28;20032;-65
2023/05/25 06:27:41;;;;;;;16.10;7.28;;;12.60;99.90;;;;;;5048933;28;20044;-65
2023/05/25 06:30:07;;;;;;;18.83;7.43;;;12.70;99.90;;;;;;5050594;28;20048;-65
2023/05/25 06:32:33;;;;;;;19.17;8.05;;;12.70;99.90;;;;;;5043924;28;20041;-65
2023/05/25 06:34:58;;;;;;;27.38;8.70;;;12.80;99.90;;;;;;5045675;28;20041;-65
2023/05/25 06:37:26;;;;;;;17.33;7.90;;;12.90;99.90;;;;;;5051198;28;20040;-65
2023/05/25 06:39:51;;;;;;;15.02;7.65;;;13.00;99.90;;;;;;5052698;28;20148;-65
2023/05/25 06:42:17;;;;;;;15.07;7.57;;;13.10;99.90;;;;;;5049229;28;20231;-65
2023/05/25 06:44:42;;;;;;;16.92;7.82;;;13.10;99.90;;;;;;5052247;28;20140;-65
2023/05/25 06:47:08;;;;;;;15.68;7.60;;;13.20;99.90;;;;;;5052906;28;20041;-65
2023/05/25 06:49:33;;;;;;;21.50;7.93;;;13.10;99.90;;;;;;5042997;28;20387;-65
2023/05/25 06:51:59;;;;;;;18.45;7.07;;;13.00;99.90;;;;;;5051862;28;20083;-65
2023/05/25 06:54:26;;;;;;;19.55;7.50;;;13.00;99.90;;;;;;5052296;28;20403;-65
2023/05/25 06:56:52;;;;;;;17.60;7.43;;;13.00;99.90;;;;;;5047058;28;20037;-65
2023/05/25 06:59:17;;;;;;;12.98;5.82;;;13.00;99.90;;;;;;5050237;28;20041;-65
2023/05/25 07:01:45;;;;;;;13.15;4.85;;;12.90;99.90;;;;;;5053736;28;20064;-65
2023/05/25 07:04:11;;;;;;;12.07;4.97;;;12.90;99.90;;;;;;5053479;28;20079;-65
2023/05/25 07:06:36;;;;;;;13.73;5.25;;;12.90;99.90;;;;;;5050881;28;20037;-65
2023/05/25 07:09:02;;;;;;;15.63;5.72;;;12.90;99.90;;;;;;5051394;28;20103;-65
2023/05/25 07:11:27;;;;;;;13.18;5.65;;;13.00;99.90;;;;;;5051809;28;20072;-65
2023/05/25 07:13:53;;;;;;;15.82;6.72;;;13.10;99.90;;;;;;5050781;28;20401;-65
2023/05/25 07:16:18;;;;;;;15.75;6.03;;;13.30;99.90;;;;;;5052189;28;20049;-65
2023/05/25 07:18:44;;;;;;;15.35;5.68;;;13.60;99.90;;;;;;5045115;28;20045;-65
2023/05/25 07:21:10;;;;;;;15.93;6.10;;;13.90;99.90;;;;;;5042151;28;20045;-65
2023/05/25 07:23:36;;;;;;;20.10;6.35;;;14.10;99.90;;;;;;5033438;28;20033;-65
2023/05/25 07:26:02;;;;;;;14.43;5.07;;;14.30;99.90;;;;;;5053563;28;20497;-65
2023/05/25 07:28:28;;;;;;;14.48;4.18;;;14.40;99.90;;;;;;5052126;28;20116;-65
2023/05/25 07:30:53;;;;;;;12.05;4.45;;;14.50;99.90;;;;;;5047186;28;20041;-65
2023/05/25 07:33:19;;;;;;;11.90;5.18;;;14.50;99.90;;;;;;5049077;28;20040;-65
2023/05/25 07:35:44;;;;;;;14.52;4.43;;;14.40;99.90;;;;;;5053909;28;20057;-65
2023/05/25 07:38:10;;;;;;;12.13;4.03;;;14.30;99.90;;;;;;5047488;28;20036;-65
2023/05/25 07:40:36;;;;;;;13.43;4.47;;;14.10;99.90;;;;;;5046912;28;20051;-65
2023/05/25 07:43:01;;;;;;;12.60;4.47;;;14.00;99.90;;;;;;5049989;28;20029;-65
2023/05/25 07:45:27;;;;;;;11.70;4.32;;;13.80;99.90;;;;;;5051837;28;20429;-64
2023/05/25 07:47:52;;;;;;;15.60;4.40;;;13.60;99.90;;;;;;5048739;28;20029;-64
2023/05/25 07:50:18;;;;;;;11.88;4.20;;;13.50;99.90;;;;;;5051774;28;20040;-64
2023/05/25 07:52:44;;;;;;;13.70;4.93;;;13.50;99.90;;;;;;5084033;22;20106;-62
2023/05/25 07:55:10;;;;;;;11.30;4.68;;;13.40;99.90;;;;;;5096525;28;20055;-62
2023/05/25 07:57:35;;;;;;;13.15;4.30;;;13.30;99.90;;;;;;5094739;28;20098;-62
2023/05/25 08:00:04;;;;;;;8.65;3.65;;;13.20;99.90;;;;;;5092629;28;20152;-62
2023/05/25 08:02:30;;;;;;;15.73;4.47;;;13.30;99.90;;;;;;5091758;28;20478;-62
2023/05/25 08:04:56;;;;;;;16.90;4.40;;;13.20;99.90;;;;;;5088015;28;20086;-62
2023/05/25 08:07:23;;;;;;;9.70;3.25;;;13.30;99.90;;;;;;5101753;28;20047;-62
2023/05/25 08:09:49;;;;;;;15.27;4.43;;;13.30;99.90;;;;;;5095566;28;20051;-62
2023/05/25 08:12:15;;;;;;;18.23;4.95;;;13.40;99.90;;;;;;5089212;28;20040;-62
2023/05/25 08:14:40;;;;;;;15.95;3.70;;;13.50;99.90;;;;;;5090156;28;20032;-62
2023/05/25 08:17:06;;;;;;;16.17;3.58;;;13.60;99.90;;;;;;5091385;28;20155;-62
2023/05/25 08:19:31;;;;;;;14.00;4.13;;;13.70;99.90;;;;;;5092560;28;20082;-62
2023/05/25 08:21:58;;;;;;;14.13;3.60;;;13.80;99.90;;;;;;5091664;28;20040;-62
2023/05/25 08:24:23;;;;;;;14.57;3.60;;;14.00;99.90;;;;;;5090606;28;20040;-62
2023/05/25 08:26:49;;;;;;;11.63;3.10;;;14.10;99.90;;;;;;5091071;28;20036;-63
2023/05/25 08:29:15;;;;;;;12.30;3.20;;;14.30;99.90;;;;;;5092360;28;20044;-63
2023/05/25 08:31:42;;;;;;;9.02;3.10;;;14.30;99.90;;;;;;5091599;28;20031;-62
2023/05/25 08:34:08;;;;;;;13.05;3.70;;;14.30;99.90;;;;;;5090407;28;20051;-62
2023/05/25 08:36:35;;;;;;;16.05;3.60;;;14.30;99.90;;;;;;5091800;28;20036;-62
2023/05/25 08:39:01;;;;;;;14.77;4.05;;;14.20;99.90;;;;;;5090846;28;20119;-62
2023/05/25 08:41:28;;;;;;;14.30;3.90;;;14.20;99.90;;;;;;5091765;28;20081;-63
2023/05/25 08:43:54;;;;;;;15.13;3.70;;;14.20;99.90;;;;;;5090921;28;20526;-62
2023/05/25 08:46:32;;;;;;;13.82;3.97;;;14.30;99.90;;;;;;5088071;28;20036;-61
2023/05/25 08:49:08;;;;;;;14.18;4.50;;;14.30;99.90;;;;;;5093670;28;20046;-62
2023/05/25 08:51:36;;;;;;;14.38;3.65;;;14.40;99.90;;;;;;5081028;28;20075;-62
2023/05/25 08:54:11;;;;;;;17.20;4.50;;;14.50;99.90;;;;;;5087692;28;20044;-62
2023/05/25 08:56:50;;;;;;;16.42;4.07;;;14.60;99.90;;;;;;5091376;28;20062;-62
2023/05/25 08:59:43;;;;;;;15.50;3.63;;;14.60;99.90;;;;;;5083335;28;20070;-63
2023/05/25 09:02:22;;;;;;;13.18;3.35;;;14.50;99.90;;;;;;5089383;28;20043;-63
2023/05/25 09:04:48;;;;;;;12.80;3.45;;;14.60;99.90;;;;;;5090236;28;20071;-62
2023/05/25 09:07:14;;;;;;;14.07;3.65;;;14.60;99.90;;;;;;5080855;28;20128;-62
2023/05/25 09:09:40;;;;;;;12.38;3.65;;;14.70;99.90;;;;;;5091348;28;20565;-63
2023/05/25 09:12:07;;;;;;;16.45;3.53;;;14.70;99.90;;;;;;5091923;28;20044;-63
2023/05/25 09:14:33;;;;;;;16.70;4.10;;;14.70;99.90;;;;;;5090881;28;20143;-63
2023/05/25 09:17:00;;;;;;;16.83;3.90;;;14.70;99.90;;;;;;5089507;28;20089;-62
2023/05/25 09:19:25;;;;;;;21.83;4.43;;;14.60;99.90;;;;;;5091439;28;20105;-63
2023/05/25 09:21:51;;;;;;;20.40;4.55;;;14.50;99.90;;;;;;5095364;28;20513;-63
2023/05/25 09:24:17;;;;;;;14.25;4.22;;;14.50;99.90;;;;;;5093176;28;20327;-62
2023/05/25 09:26:45;;;;;;;17.77;4.00;;;14.50;99.90;;;;;;5094678;28;20040;-62
2023/05/25 09:29:15;;;;;;;17.75;4.10;;;14.40;99.90;;;;;;5093288;28;20036;-62
2023/05/25 09:31:41;;;;;;;19.13;3.80;;;14.40;99.90;;;;;;5092401;28;20085;-62
2023/05/25 09:34:13;;;;;;;19.10;4.43;;;14.50;99.90;;;;;;5101395;28;20497;-62
2023/05/25 09:36:42;;;;;;;16.67;4.40;;;15.00;99.90;;;;;;5094839;28;20036;-63
2023/05/25 09:39:12;;;;;;;18.35;4.55;;;15.20;99.90;;;;;;5090921;28;20604;-63
2023/05/25 09:41:40;;;;;;;14.63;4.20;;;15.30;99.90;;;;;;5089717;28;20047;-62
2023/05/25 09:44:06;;;;;;;23.10;4.10;;;15.20;99.90;;;;;;5093965;28;20132;-63
2023/05/25 09:46:35;;;;;;;28.63;5.32;;;15.10;99.90;;;;;;5099175;28;20448;-63
2023/05/25 09:49:02;;;;;;;18.65;3.97;;;14.90;99.90;;;;;;5101382;28;20085;-62
2023/05/25 09:51:32;;;;;;;19.65;4.40;;;14.80;99.90;;;;;;5091345;28;20046;-62
2023/05/25 09:54:00;;;;;;;14.95;3.60;;;15.00;99.90;;;;;;5105467;28;20054;-62
2023/05/25 09:56:27;;;;;;;16.65;4.20;;;15.30;99.90;;;;;;5089382;28;20519;-61
2023/05/25 09:58:52;;;;;;;18.73;4.30;;;15.60;99.90;;;;;;5111999;28;20043;-62
2023/05/25 10:01:18;;;;;;;18.25;3.63;;;16.00;99.90;;;;;;5101935;28;20036;-62
2023/05/25 10:03:47;;;;;;;18.63;4.15;;;16.10;99.90;;;;;;5090913;28;20047;-62
2023/05/25 10:06:16;;;;;;;18.38;4.03;;;16.10;99.90;;;;;;5092866;28;20039;-62
2023/05/25 10:08:44;;;;;;;25.95;4.72;;;15.90;99.90;;;;;;5087194;28;20081;-62
2023/05/25 10:11:13;;;;;;;17.52;4.13;;;15.70;99.90;;;;;;5093684;28;20040;-62
2023/05/25 10:13:39;;;;;;;21.02;4.80;;;15.50;99.90;;;;;;5092521;28;20401;-62
2023/05/25 10:16:08;;;;;;;17.92;4.75;;;15.30;99.90;;;;;;5092921;28;20047;-62
2023/05/25 10:18:39;;;;;;;27.63;5.10;;;15.30;99.90;;;;;;5091132;28;20119;-62
2023/05/25 10:21:08;;;;;;;24.20;4.50;;;15.50;99.90;;;;;;5091661;28;20040;-62
2023/05/25 10:23:46;;;;;;;21.10;4.50;;;15.70;99.90;;;;;;5094475;28;20071;-62
2023/05/25 10:26:17;;;;;;;18.23;4.28;;;15.60;99.90;;;;;;5102966;28;20040;-62
2023/05/25 10:28:44;;;;;;;23.50;4.47;;;15.60;99.90;;;;;;5094803;28;20512;-61
2023/05/25 10:31:12;;;;;;;21.77;4.30;;;15.70;99.90;;;;;;5094152;28;20482;-62
2023/05/25 10:33:38;;;;;;;21.02;4.50;;;15.70;99.90;;;;;;5090392;28;20040;-61
2023/05/25 10:36:05;;;;;;;19.50;3.88;;;15.70;99.90;;;;;;5086752;28;20044;-62
2023/05/25 10:38:32;;;;;;;23.83;5.35;;;15.60;99.90;;;;;;5094558;28;20194;-62
2023/05/25 10:40:59;;;;;;;19.20;4.85;;;15.50;99.90;;;;;;5094620;28;20043;-62
2023/05/25 10:43:26;;;;;;;14.60;5.00;;;15.40;99.90;;;;;;5094053;28;20068;-62
2023/05/25 10:45:52;;;;;;;22.58;4.85;;;15.70;99.90;;;;;;5094474;28;20043;-62
2023/05/25 10:48:18;;;;;;;24.92;4.95;;;16.00;99.90;;;;;;5092197;28;20040;-63
2023/05/25 10:50:49;;;;;;;19.67;4.25;;;16.00;99.90;;;;;;5102001;28;20066;-62
2023/05/25 10:53:16;;;;;;;21.73;4.95;;;15.90;99.90;;;;;;5094075;28;20042;-63
2023/05/25 10:55:42;;;;;;;16.85;4.28;;;15.80;99.90;;;;;;5091682;28;20067;-62
2023/05/25 10:58:09;;;;;;;12.63;4.38;;;15.80;99.90;;;;;;5113490;28;20043;-62
2023/05/25 11:00:35;;;;;;;16.40;4.63;;;15.90;99.90;;;;;;5112937;28;20071;-62
2023/05/25 11:03:02;;;;;;;22.70;4.65;;;15.90;99.90;;;;;;5103007;28;20071;-62
2023/05/25 11:05:37;;;;;;;15.55;4.00;;;16.10;99.90;;;;;;5107425;28;20123;-62
2023/05/25 11:08:11;;;;;;;20.38;4.70;;;16.30;99.90;;;;;;5093838;28;20039;-62
2023/05/25 11:10:49;;;;;;;18.25;3.97;;;16.40;99.90;;;;;;5092526;28;20051;-62
2023/05/25 11:13:32;;;;;;;21.02;4.10;;;16.20;99.90;;;;;;5092331;28;20496;-63
2023/05/25 11:16:17;;;;;;;16.73;4.72;;;16.20;99.90;;;;;;5095085;28;20066;-62
2023/05/25 11:18:50;;;;;;;17.80;4.18;;;16.30;99.90;;;;;;5091372;28;20428;-63
2023/05/25 11:21:20;;;;;;;16.70;4.75;;;16.30;99.90;;;;;;5093621;28;20036;-62
2023/05/25 11:24:05;;;;;;;18.80;4.28;;;16.20;99.90;;;;;;5092345;28;20044;-62
2023/05/25 11:26:34;;;;;;;17.08;4.47;;;16.20;99.90;;;;;;5092644;28;20121;-63
2023/05/25 11:29:14;;;;;;;17.67;4.97;;;16.20;99.90;;;;;;5093896;28;20040;-62
2023/05/25 11:31:39;;;;;;;20.52;3.92;;;16.40;99.30;;;;;;5098334;28;20149;-62
2023/05/25 11:34:05;;;;;;;18.50;4.60;;;16.50;99.90;;;;;;5095585;28;20047;-62
2023/05/25 11:36:33;;;;;;;15.68;4.05;;;16.50;99.90;;;;;;5107715;28;20093;-62
2023/05/25 11:39:08;;;;;;;15.15;4.28;;;16.60;99.90;;;;;;5093156;28;20036;-62
2023/05/25 11:41:35;;;;;;;13.73;4.28;;;16.60;99.80;;;;;;5098627;28;20036;-62
2023/05/25 11:44:05;;;;;;;20.17;4.20;;;16.70;99.70;;;;;;5104228;28;20590;-62
2023/05/25 11:46:33;;;;;;;16.13;4.05;;;16.50;98.70;;;;;;5112403;28;20507;-63
2023/05/25 11:48:59;;;;;;;11.65;3.88;;;16.60;99.70;;;;;;5112545;28;20051;-62
2023/05/25 11:51:27;;;;;;;19.30;3.63;;;16.70;99.60;;;;;;5113490;28;20048;-62
2023/05/25 11:53:53;;;;;;;16.23;4.20;;;16.70;97.60;;;;;;5113259;28;20032;-62
2023/05/25 11:56:19;;;;;;;15.75;3.80;;;16.80;97.80;;;;;;5104190;27;20040;-62
2023/05/25 11:58:46;;;;;;;15.13;4.32;;;16.70;97.10;;;;;;5109495;28;20055;-62
2023/05/25 12:01:20;;;;;;;19.05;4.80;;;16.70;97.30;;;;;;5113412;28;20040;-62
2023/05/25 12:03:48;;;;;;;17.80;4.38;;;16.80;97.60;;;;;;5111964;28;20500;-61
2023/05/25 12:06:33;;;;;;;18.00;4.32;;;16.70;97.00;;;;;;5113305;28;20044;-62
2023/05/25 12:09:00;;;;;;;19.38;4.60;;;16.70;97.70;;;;;;5097501;28;20121;-61
2023/05/25 12:11:31;;;;;;;19.77;5.05;;;16.70;97.70;;;;;;5096527;28;20044;-61
2023/05/25 12:13:58;;;;;;;18.42;4.88;;;16.80;97.20;;;;;;5104484;28;20044;-62
2023/05/25 12:16:24;;;;;;;20.38;4.50;;;16.80;97.30;;;;;;5113275;28;20051;-62
2023/05/25 12:18:51;;;;;;;18.92;4.80;;;16.80;96.70;;;;;;5113180;28;20183;-62
2023/05/25 12:21:17;;;;;;;16.10;4.13;;;16.90;96.40;;;;;;5112786;28;20078;-61
2023/05/25 12:23:43;;;;;;;18.75;4.10;;;16.90;97.50;;;;;;5111455;28;20122;-62
2023/05/25 12:26:11;;;;;;;16.73;4.82;;;16.70;95.60;;;;;;5103383;28;20447;-62
2023/05/25 12:28:36;;;;;;;13.63;3.88;;;16.60;95.10;;;;;;5107655;28;20036;-62
2023/05/25 12:31:22;;;;;;;19.80;4.45;;;16.70;94.80;;;;;;5110596;28;20506;-62
2023/05/25 12:34:06;;;;;;;17.77;4.82;;;16.80;95.10;;;;;;5112642;28;20039;-62
2023/05/25 12:36:46;;;;;;;15.70;4.30;;;16.90;95.40;;;;;;5112854;28;20112;-62
2023/05/25 12:39:17;;;;;;;26.37;4.93;;;16.90;94.50;;;;;;5103583;28;20111;-62
2023/05/25 12:41:52;;;;;;;16.83;4.05;;;16.90;94.50;;;;;;5075440;28;20036;-62
2023/05/25 12:44:31;;;;;;;19.83;4.93;;;17.00;95.40;;;;;;5100345;28;20039;-62
2023/05/25 12:47:18;;;;;;;14.05;4.20;;;16.90;95.30;;;;;;5094017;28;20055;-62
2023/05/25 12:49:51;;;;;;;18.42;5.50;;;16.80;95.20;;;;;;5091948;28;20051;-62